createdAt,value
2022-11-16T00:00:04.321Z,18.70
2022-11-16T00:02:53.995Z,19.40
2022-11-16T00:05:27.984Z,18.40
2022-11-16T00:07:58.020Z,19.40
2022-11-16T00:10:26.297Z,22.30
2022-11-16T00:12:54.532Z,20.00
2022-11-16T00:15:23.249Z,19.90
2022-11-16T00:17:51.496Z,19.00
2022-11-16T00:20:19.799Z,21.00
2022-11-16T00:22:47.980Z,21.90
2022-11-16T00:25:16.284Z,22.80
2022-11-16T00:27:44.844Z,23.90
2022-11-16T00:30:13.613Z,22.40
2022-11-16T00:32:41.822Z,24.80
2022-11-16T00:35:10.385Z,20.50
2022-11-16T00:37:38.660Z,18.70
2022-11-16T00:40:08.351Z,18.90
2022-11-16T00:42:36.949Z,18.50
2022-11-16T00:45:05.666Z,21.00
2022-11-16T00:47:33.952Z,20.30
2022-11-16T00:50:02.221Z,21.20
2022-11-16T00:52:30.810Z,21.10
2022-11-16T00:54:59.637Z,24.50
2022-11-16T00:57:28.007Z,21.70
2022-11-16T00:59:56.236Z,18.70
2022-11-16T01:02:24.855Z,20.70
2022-11-16T01:04:53.166Z,21.40
2022-11-16T01:07:21.495Z,23.40
2022-11-16T01:09:49.760Z,21.80
2022-11-16T01:12:18.546Z,21.10
2022-11-16T01:14:48.350Z,22.50
2022-11-16T01:17:16.580Z,19.90
2022-11-16T01:19:44.844Z,20.00
2022-11-16T01:22:13.090Z,22.70
2022-11-16T01:24:41.407Z,22.10
2022-11-16T01:27:09.643Z,24.40
2022-11-16T01:29:40.120Z,21.70
2022-11-16T01:32:08.890Z,21.80
2022-11-16T01:34:37.267Z,19.90
2022-11-16T01:37:12.286Z,20.40
2022-11-16T01:39:42.734Z,21.70
2022-11-16T01:42:20.008Z,21.10
2022-11-16T01:44:49.592Z,20.80
2022-11-16T01:47:19.612Z,21.80
2022-11-16T01:49:55.295Z,20.90
2022-11-16T01:52:33.828Z,20.30
2022-11-16T01:55:04.106Z,20.40
2022-11-16T01:57:45.944Z,21.90
2022-11-16T02:00:15.407Z,20.70
2022-11-16T02:02:48.753Z,22.30
2022-11-16T02:05:56.104Z,19.90
2022-11-16T02:09:17.183Z,14.70
2022-11-16T02:12:06.595Z,18.50
2022-11-16T02:14:49.990Z,16.90
2022-11-16T02:18:23.279Z,22.00
2022-11-16T02:21:07.478Z,20.40
2022-11-16T02:24:03.000Z,19.90
2022-11-16T02:27:14.073Z,21.40
2022-11-16T02:29:52.177Z,23.70
2022-11-16T02:32:50.147Z,19.20
2022-11-16T02:35:40.723Z,18.10
2022-11-16T02:38:19.654Z,22.50
2022-11-16T02:40:53.928Z,18.60
2022-11-16T02:43:37.850Z,17.50
2022-11-16T02:46:13.193Z,18.90
2022-11-16T02:48:47.926Z,21.80
2022-11-16T02:51:17.813Z,20.60
2022-11-16T02:54:13.169Z,17.90
2022-11-16T02:56:52.909Z,22.00
2022-11-16T02:59:30.455Z,20.00
2022-11-16T03:02:35.695Z,21.40
2022-11-16T03:05:15.069Z,21.00
2022-11-16T03:08:04.343Z,21.10
2022-11-16T03:10:55.566Z,22.10
2022-11-16T03:13:28.566Z,20.80
2022-11-16T03:16:00.364Z,22.30
2022-11-16T03:18:32.216Z,22.00
2022-11-16T03:21:12.818Z,20.10
2022-11-16T03:23:41.277Z,21.20
2022-11-16T03:26:12.801Z,19.80
2022-11-16T03:28:50.461Z,20.80
2022-11-16T03:31:28.036Z,22.70
2022-11-16T03:34:01.175Z,21.10
2022-11-16T03:36:40.899Z,21.60
2022-11-16T03:39:15.835Z,21.00
2022-11-16T03:41:47.959Z,22.40
2022-11-16T03:44:18.984Z,21.10
2022-11-16T03:46:47.955Z,19.90
2022-11-16T03:49:21.513Z,20.40
2022-11-16T03:51:51.302Z,19.40
2022-11-16T03:54:20.228Z,19.70
2022-11-16T03:56:48.454Z,21.60
2022-11-16T03:59:16.826Z,21.30
2022-11-16T04:01:46.265Z,20.80
2022-11-16T04:04:34.891Z,19.80
2022-11-16T04:07:22.950Z,20.70
2022-11-16T04:10:09.886Z,20.30
2022-11-16T04:13:03.288Z,17.30
2022-11-16T04:15:50.055Z,16.90
2022-11-16T04:18:37.710Z,19.80
2022-11-16T04:21:26.912Z,20.80
2022-11-16T04:24:13.215Z,20.00
2022-11-16T04:27:04.271Z,21.20
2022-11-16T04:29:33.886Z,15.60
2022-11-16T04:33:01.473Z,18.40
2022-11-16T04:35:47.953Z,19.70
2022-11-16T04:38:16.314Z,20.20
2022-11-16T04:40:44.605Z,17.20
2022-11-16T04:43:13.893Z,18.80
2022-11-16T04:46:02.181Z,17.80
2022-11-16T04:48:36.700Z,18.60
2022-11-16T04:51:05.722Z,15.70
2022-11-16T04:53:34.384Z,18.10
2022-11-16T04:56:08.479Z,19.80
2022-11-16T04:58:36.980Z,21.20
2022-11-16T05:01:05.489Z,18.80
2022-11-16T05:03:34.623Z,19.10
2022-11-16T05:06:03.025Z,20.00
2022-11-16T05:08:31.802Z,22.60
2022-11-16T05:11:00.785Z,21.80
2022-11-16T05:13:30.010Z,21.40
2022-11-16T05:15:58.651Z,21.70
2022-11-16T05:18:27.227Z,22.40
2022-11-16T05:21:01.410Z,21.40
2022-11-16T05:23:50.915Z,20.90
2022-11-16T05:26:21.305Z,22.10
2022-11-16T05:28:49.955Z,21.30
2022-11-16T05:31:18.274Z,23.60
2022-11-16T05:33:46.566Z,21.80
2022-11-16T05:36:15.187Z,21.10
2022-11-16T05:38:43.643Z,21.30
2022-11-16T05:41:12.542Z,22.60
2022-11-16T05:43:41.193Z,20.70
2022-11-16T05:46:22.435Z,23.30
2022-11-16T05:48:51.446Z,22.60
2022-11-16T05:51:19.666Z,23.50
2022-11-16T05:53:49.575Z,22.50
2022-11-16T05:56:20.729Z,20.90
2022-11-16T05:58:49.520Z,23.10
2022-11-16T06:01:18.099Z,23.10
2022-11-16T06:03:46.475Z,22.50
2022-11-16T06:06:14.810Z,22.00
2022-11-16T06:08:43.448Z,23.90
2022-11-16T06:11:14.813Z,25.70
2022-11-16T06:13:44.520Z,22.90
2022-11-16T06:16:13.167Z,18.60
2022-11-16T06:18:45.052Z,17.40
2022-11-16T06:21:16.937Z,20.00
2022-11-16T06:23:45.917Z,22.60
2022-11-16T06:26:14.324Z,22.70
2022-11-16T06:28:42.810Z,24.10
2022-11-16T06:31:11.123Z,18.50
2022-11-16T06:33:42.281Z,20.10
2022-11-16T06:36:17.880Z,16.10
2022-11-16T06:38:46.541Z,18.60
2022-11-16T06:41:14.911Z,21.90
2022-11-16T06:43:46.035Z,20.00
2022-11-16T06:46:15.372Z,22.90
2022-11-16T06:48:43.832Z,23.80
2022-11-16T06:51:13.966Z,20.10
2022-11-16T06:53:42.805Z,23.50
2022-11-16T06:56:13.544Z,24.70
2022-11-16T06:58:44.776Z,24.20
2022-11-16T07:01:13.987Z,23.00
2022-11-16T07:03:44.165Z,23.40
2022-11-16T07:06:14.241Z,23.80
2022-11-16T07:08:44.329Z,26.70
2022-11-16T07:11:12.837Z,23.20
2022-11-16T07:13:41.137Z,25.00
2022-11-16T07:16:11.842Z,25.40
2022-11-16T07:18:44.236Z,24.20
2022-11-16T07:21:16.252Z,22.90
2022-11-16T07:23:45.143Z,23.80
2022-11-16T07:26:17.372Z,24.20
2022-11-16T07:28:49.932Z,25.60
2022-11-16T07:31:20.946Z,24.30
2022-11-16T07:33:54.239Z,26.80
2022-11-16T07:37:12.189Z,23.70
2022-11-16T07:39:41.532Z,23.00
2022-11-16T07:42:11.881Z,22.90
2022-11-16T07:45:08.269Z,23.50
2022-11-16T07:47:40.440Z,20.50
2022-11-16T07:50:11.125Z,20.90
2022-11-16T07:52:39.409Z,20.40
2022-11-16T07:55:11.392Z,18.50
2022-11-16T07:57:39.847Z,21.90
2022-11-16T08:00:09.940Z,23.10
2022-11-16T08:02:47.814Z,26.40
2022-11-16T08:05:19.450Z,19.80
2022-11-16T08:07:49.661Z,22.30
2022-11-16T08:10:19.126Z,24.20
2022-11-16T08:12:47.450Z,24.50
2022-11-16T08:15:15.969Z,21.20
2022-11-16T08:17:44.425Z,20.40
2022-11-16T08:20:13.842Z,21.40
2022-11-16T08:22:43.033Z,24.40
2022-11-16T08:25:12.336Z,25.80
2022-11-16T08:27:40.801Z,23.90
2022-11-16T08:30:10.231Z,25.00
2022-11-16T08:32:39.432Z,23.70
2022-11-16T08:35:08.449Z,19.60
2022-11-16T08:37:36.838Z,22.00
2022-11-16T08:40:05.862Z,23.50
2022-11-16T08:42:42.262Z,20.40
2022-11-16T08:45:11.943Z,17.80
2022-11-16T08:47:40.385Z,16.90
2022-11-16T08:50:09.733Z,19.20
2022-11-16T08:52:38.658Z,16.60
2022-11-16T08:55:07.893Z,13.90
2022-11-16T08:57:36.707Z,17.80
2022-11-16T09:00:09.287Z,15.10
2022-11-16T09:02:38.756Z,17.10
2022-11-16T09:05:08.267Z,16.50
2022-11-16T09:07:36.567Z,18.10
2022-11-16T09:10:06.111Z,19.30
2022-11-16T09:12:35.344Z,10.90
2022-11-16T09:15:06.240Z,17.10
2022-11-16T09:17:34.649Z,20.70
2022-11-16T09:20:03.943Z,23.50
2022-11-16T09:22:32.196Z,23.90
2022-11-16T09:25:00.538Z,24.00
2022-11-16T09:27:28.819Z,20.80
2022-11-16T09:29:57.062Z,9.60
2022-11-16T09:32:25.333Z,18.60
2022-11-16T09:34:53.911Z,23.30
2022-11-16T09:37:22.317Z,22.30
2022-11-16T09:39:50.850Z,20.20
2022-11-16T09:43:18.262Z,21.90
2022-11-16T09:46:26.318Z,17.70
2022-11-16T09:48:57.555Z,18.20
2022-11-16T09:51:29.839Z,23.80
2022-11-16T09:54:05.545Z,24.00
2022-11-16T09:56:40.222Z,18.50
2022-11-16T09:59:11.069Z,22.40
2022-11-16T10:02:02.082Z,21.80
2022-11-16T10:04:38.453Z,21.90
2022-11-16T10:07:16.056Z,21.90
2022-11-16T10:09:45.380Z,22.70
2022-11-16T10:12:43.782Z,20.50
2022-11-16T10:15:36.800Z,20.30
2022-11-16T10:18:15.558Z,24.00
2022-11-16T10:21:18.884Z,23.90
2022-11-16T10:24:00.733Z,22.20
2022-11-16T10:26:47.033Z,22.50
2022-11-16T10:30:09.413Z,24.60
2022-11-16T10:33:10.885Z,24.70
2022-11-16T10:35:53.308Z,21.40
2022-11-16T10:38:27.660Z,20.80
2022-11-16T10:41:03.575Z,23.90
2022-11-16T10:43:33.576Z,20.90
2022-11-16T10:46:36.484Z,24.10
2022-11-16T10:49:16.532Z,23.70
2022-11-16T10:51:44.995Z,23.30
2022-11-16T10:54:18.194Z,24.20
2022-11-16T10:57:02.600Z,21.50
2022-11-16T10:59:49.241Z,21.60
2022-11-16T11:02:28.406Z,22.10
2022-11-16T11:05:21.978Z,21.20
2022-11-16T11:08:01.685Z,23.80
2022-11-16T11:10:38.895Z,21.20
2022-11-16T11:13:10.170Z,17.30
2022-11-16T11:15:40.620Z,12.00
2022-11-16T11:18:19.176Z,21.00
2022-11-16T11:21:04.708Z,21.60
2022-11-16T11:23:46.920Z,19.70
2022-11-16T11:26:36.494Z,25.70
2022-11-16T11:29:36.167Z,22.80
2022-11-16T11:32:08.534Z,21.80
2022-11-16T11:34:44.906Z,22.80
2022-11-16T11:37:19.179Z,23.90
2022-11-16T11:39:47.618Z,17.00
2022-11-16T11:42:15.833Z,21.90
2022-11-16T11:44:50.303Z,23.10
2022-11-16T11:51:06.217Z,23.80
2022-11-16T11:53:56.422Z,22.70
2022-11-16T11:56:27.805Z,24.80
2022-11-16T11:58:56.951Z,25.10
2022-11-16T12:01:44.620Z,17.10
2022-11-16T12:04:24.903Z,21.50
2022-11-16T12:07:14.589Z,27.60
2022-11-16T12:09:48.705Z,26.40
2022-11-16T12:12:53.436Z,24.10
2022-11-16T12:16:08.938Z,26.50
2022-11-16T12:19:04.497Z,26.90
2022-11-16T12:22:00.622Z,26.70
2022-11-16T12:24:38.841Z,22.70
2022-11-16T12:27:30.173Z,22.80
2022-11-16T12:29:58.554Z,24.00
2022-11-16T12:33:02.107Z,23.90
2022-11-16T12:35:42.592Z,23.80
2022-11-16T12:38:19.463Z,26.50
2022-11-16T12:41:17.545Z,23.20
2022-11-16T12:43:58.010Z,24.50
2022-11-16T12:47:07.684Z,25.40
2022-11-16T12:50:35.727Z,30.00
2022-11-16T12:53:35.129Z,27.80
2022-11-16T12:56:15.719Z,27.30
2022-11-16T12:59:31.730Z,29.40
2022-11-16T13:02:27.988Z,26.80
2022-11-16T13:05:35.737Z,27.40
2022-11-16T13:08:34.319Z,28.60
2022-11-16T13:11:15.920Z,29.60
2022-11-16T13:13:51.651Z,28.40
2022-11-16T13:16:24.489Z,28.00
2022-11-16T13:18:54.845Z,28.50
2022-11-16T13:21:57.296Z,27.00
2022-11-16T13:25:14.252Z,25.00
2022-11-16T13:28:33.482Z,25.80
2022-11-16T13:31:53.970Z,25.00
2022-11-16T13:34:33.030Z,26.60
2022-11-16T13:37:02.296Z,26.40
2022-11-16T13:39:58.384Z,28.10
2022-11-16T13:42:27.414Z,26.00
2022-11-16T13:45:52.134Z,26.40
2022-11-16T13:48:38.551Z,24.60
2022-11-16T13:51:18.646Z,26.90
2022-11-16T13:54:43.224Z,25.00
2022-11-16T13:56:50.212Z,24.10
2022-11-16T13:59:26.178Z,26.10
2022-11-16T14:02:01.168Z,24.20
2022-11-16T14:04:59.480Z,26.80
2022-11-16T14:07:31.039Z,25.50
2022-11-16T14:10:00.948Z,26.70
2022-11-16T14:12:54.045Z,26.70
2022-11-16T14:15:32.980Z,26.60
2022-11-16T14:18:21.747Z,26.40
2022-11-16T14:20:59.363Z,24.20
2022-11-16T14:23:58.532Z,24.80
2022-11-16T14:26:45.522Z,24.20
2022-11-16T14:29:32.600Z,24.10
2022-11-16T14:32:04.810Z,26.10
2022-11-16T14:34:41.803Z,23.70
2022-11-16T14:37:22.309Z,23.90
2022-11-16T14:39:53.925Z,25.00
2022-11-16T14:42:34.533Z,24.40
2022-11-16T14:45:24.252Z,24.30
2022-11-16T14:48:15.937Z,23.00
2022-11-16T14:50:47.980Z,24.00
2022-11-16T14:53:19.747Z,34.10
2022-11-16T14:55:48.493Z,50.10
2022-11-16T14:58:20.799Z,25.80
2022-11-16T15:01:14.812Z,26.30
2022-11-16T15:03:58.978Z,29.20
2022-11-16T15:06:28.483Z,27.80
2022-11-16T15:09:03.807Z,26.80
2022-11-16T15:11:56.581Z,26.10
2022-11-16T15:14:31.116Z,27.80
2022-11-16T15:17:00.479Z,26.90
2022-11-16T15:19:30.858Z,30.30
2022-11-16T15:22:01.606Z,29.60
2022-11-16T15:24:35.246Z,31.30
2022-11-16T15:27:26.182Z,30.50
2022-11-16T15:29:54.849Z,30.30
2022-11-16T15:32:23.549Z,32.50
2022-11-16T15:34:54.593Z,28.70
2022-11-16T15:37:31.022Z,26.50
2022-11-16T15:40:00.806Z,31.00
2022-11-16T15:42:29.858Z,34.80
2022-11-16T15:45:01.996Z,33.00
2022-11-16T15:47:30.819Z,29.80
2022-11-16T15:49:59.526Z,27.00
2022-11-16T15:52:55.351Z,28.50
2022-11-16T15:55:40.816Z,28.90
2022-11-16T15:58:27.627Z,31.00
2022-11-16T16:00:58.996Z,31.70
2022-11-16T16:03:34.877Z,25.90
2022-11-16T16:06:05.149Z,28.00
2022-11-16T16:08:39.412Z,30.30
2022-11-16T16:13:58.076Z,28.90
2022-11-16T16:16:42.630Z,32.30
2022-11-16T16:22:33.780Z,35.40
2022-11-16T16:25:04.800Z,34.80
2022-11-16T16:27:40.731Z,34.00
2022-11-16T16:30:14.683Z,31.50
2022-11-16T16:32:51.850Z,25.20
2022-11-16T16:35:23.552Z,31.10
2022-11-16T16:38:01.054Z,32.80
2022-11-16T16:40:29.854Z,31.30
2022-11-16T16:42:58.515Z,29.00
2022-11-16T16:45:43.492Z,31.00
2022-11-16T16:48:12.774Z,28.50
2022-11-16T16:50:41.368Z,28.40
2022-11-16T16:53:13.984Z,28.80
2022-11-16T16:55:43.674Z,29.90
2022-11-16T16:58:13.468Z,31.50
2022-11-16T17:00:42.499Z,32.80
2022-11-16T17:03:11.263Z,30.80
2022-11-16T17:05:39.738Z,34.90
2022-11-16T17:08:08.170Z,34.30
2022-11-16T17:10:39.034Z,29.00
2022-11-16T17:13:07.429Z,30.50
2022-11-16T17:15:35.826Z,34.60
2022-11-16T17:18:04.316Z,34.30
2022-11-16T17:20:33.229Z,34.10
2022-11-16T17:23:01.581Z,35.20
2022-11-16T17:25:33.024Z,34.00
2022-11-16T17:28:01.404Z,34.40
2022-11-16T17:30:30.193Z,34.90
2022-11-16T17:32:58.568Z,32.40
2022-11-16T17:35:27.092Z,32.90
2022-11-16T17:37:55.446Z,33.30
2022-11-16T17:40:23.836Z,37.50
2022-11-16T17:42:52.213Z,34.10
2022-11-16T17:45:20.609Z,30.10
2022-11-16T17:47:49.057Z,31.90
2022-11-16T17:50:17.624Z,38.00
2022-11-16T17:52:46.035Z,34.40
2022-11-16T17:55:14.472Z,34.30
2022-11-16T17:57:42.840Z,31.20
2022-11-16T18:00:12.285Z,32.70
2022-11-16T18:02:40.656Z,39.10
2022-11-16T18:05:09.952Z,38.00
2022-11-16T18:07:40.317Z,39.30
2022-11-16T18:10:09.036Z,39.10
2022-11-16T18:12:38.616Z,31.30
2022-11-16T18:15:27.354Z,27.60
2022-11-16T18:17:57.159Z,28.40
2022-11-16T18:20:27.702Z,28.40
2022-11-16T18:22:57.630Z,33.40
2022-11-16T18:25:26.004Z,32.90
2022-11-16T18:27:55.686Z,32.70
2022-11-16T18:30:24.305Z,32.70
2022-11-16T18:32:52.517Z,34.00
2022-11-16T18:35:20.739Z,32.10
2022-11-16T18:37:49.064Z,32.60
2022-11-16T18:40:18.180Z,30.60
2022-11-16T18:42:46.504Z,27.50
2022-11-16T18:45:14.745Z,29.50
2022-11-16T18:47:42.970Z,31.60
2022-11-16T18:50:19.057Z,32.30
2022-11-16T18:52:49.641Z,29.60
2022-11-16T18:55:17.985Z,27.90
2022-11-16T18:57:46.210Z,28.10
2022-11-16T19:00:15.550Z,29.00
2022-11-16T19:02:43.775Z,27.50
2022-11-16T19:05:11.979Z,29.50
2022-11-16T19:07:40.200Z,32.40
2022-11-16T19:10:09.459Z,30.20
2022-11-16T19:12:37.755Z,30.30
2022-11-16T19:15:06.899Z,30.40
2022-11-16T19:17:43.660Z,29.70
2022-11-16T19:20:23.672Z,28.60
2022-11-16T19:22:52.088Z,33.80
2022-11-16T19:25:20.569Z,30.90
2022-11-16T19:27:48.978Z,29.70
2022-11-16T19:30:18.307Z,29.10
2022-11-16T19:32:46.569Z,31.60
2022-11-16T19:35:16.373Z,30.00
2022-11-16T19:37:44.583Z,31.10
2022-11-16T19:40:13.252Z,26.40
2022-11-16T19:42:42.949Z,31.60
2022-11-16T19:45:12.050Z,30.30
2022-11-16T19:47:40.339Z,28.60
2022-11-16T19:50:10.870Z,28.10
2022-11-16T19:52:39.227Z,28.20
2022-11-16T19:55:07.962Z,28.90
2022-11-16T19:57:36.364Z,27.80
2022-11-16T20:00:05.310Z,27.50
2022-11-16T20:02:33.501Z,26.70
2022-11-16T20:05:01.757Z,31.80
2022-11-16T20:07:30.271Z,32.20
2022-11-16T20:09:58.545Z,29.20
2022-11-16T20:12:26.970Z,31.60
2022-11-16T20:14:55.326Z,30.10
2022-11-16T20:17:23.678Z,34.10
2022-11-16T20:19:51.928Z,34.90
2022-11-16T20:22:20.175Z,31.10
2022-11-16T20:24:48.507Z,32.60
2022-11-16T20:27:16.738Z,32.40
2022-11-16T20:29:44.937Z,28.20
2022-11-16T20:32:13.149Z,28.60
2022-11-16T20:34:41.374Z,33.60
2022-11-16T20:37:09.595Z,32.00
2022-11-16T20:39:37.838Z,32.80
2022-11-16T20:42:06.119Z,30.80
2022-11-16T20:44:34.335Z,32.10
2022-11-16T20:47:02.535Z,28.30
2022-11-16T20:49:30.807Z,27.80
2022-11-16T20:51:59.075Z,29.30
2022-11-16T20:54:27.365Z,31.30
2022-11-16T20:56:55.648Z,34.80
2022-11-16T20:59:23.866Z,34.00
2022-11-16T21:01:55.171Z,31.00
2022-11-16T21:04:23.513Z,31.90
2022-11-16T21:06:51.995Z,30.70
2022-11-16T21:09:22.988Z,30.90
2022-11-16T21:12:10.124Z,33.70
2022-11-16T21:14:38.471Z,30.60
2022-11-16T21:17:06.799Z,29.30
2022-11-16T21:19:35.057Z,28.90
2022-11-16T21:22:03.306Z,27.90
2022-11-16T21:24:32.362Z,29.90
2022-11-16T21:27:00.668Z,31.80
2022-11-16T21:29:28.984Z,24.30
2022-11-16T21:31:57.342Z,32.10
2022-11-16T21:34:28.013Z,30.20
2022-11-16T21:36:56.363Z,22.20
2022-11-16T21:39:25.338Z,28.70
2022-11-16T21:41:53.753Z,26.60
2022-11-16T21:44:21.970Z,28.50
2022-11-16T21:46:50.215Z,30.70
2022-11-16T21:49:18.509Z,32.70
2022-11-16T21:51:46.713Z,33.80
2022-11-16T21:54:15.143Z,34.40
2022-11-16T21:56:43.370Z,32.40
2022-11-16T21:59:11.582Z,33.60
2022-11-16T22:01:59.464Z,34.00
2022-11-16T22:04:46.518Z,34.10
2022-11-16T22:07:33.932Z,27.40
2022-11-16T22:10:11.614Z,30.40
2022-11-16T22:12:39.854Z,31.50
2022-11-16T22:15:09.247Z,33.50
2022-11-16T22:17:43.600Z,32.40
2022-11-16T22:20:12.050Z,34.10
2022-11-16T22:22:40.248Z,34.60
2022-11-16T22:25:08.980Z,31.80
2022-11-16T22:27:58.439Z,32.40
2022-11-16T22:30:25.613Z,35.20
2022-11-16T22:32:53.837Z,33.60
2022-11-16T22:35:22.144Z,35.10
2022-11-16T22:37:50.411Z,35.00
2022-11-16T22:40:18.601Z,33.10
2022-11-16T22:42:46.799Z,30.20
2022-11-16T22:45:14.997Z,27.80
2022-11-16T22:47:43.264Z,31.30
2022-11-16T22:50:11.915Z,28.50
2022-11-16T22:52:40.167Z,35.00
2022-11-16T22:55:09.007Z,36.30
2022-11-16T22:57:37.251Z,38.30
2022-11-16T23:00:06.855Z,31.60
2022-11-16T23:02:35.125Z,34.70
2022-11-16T23:05:03.416Z,40.60
2022-11-16T23:07:31.712Z,34.30
2022-11-16T23:10:00.016Z,36.20
2022-11-16T23:12:46.647Z,37.90
2022-11-16T23:15:33.306Z,32.00
2022-11-16T23:18:01.565Z,27.10
2022-11-16T23:20:48.008Z,22.90
2022-11-16T23:23:36.780Z,21.60
2022-11-16T23:26:35.105Z,26.60
2022-11-16T23:29:08.007Z,26.50
2022-11-16T23:31:37.926Z,26.30
2022-11-16T23:34:06.163Z,27.60
2022-11-16T23:36:34.408Z,28.60
2022-11-16T23:39:02.713Z,29.70
2022-11-16T23:41:49.391Z,26.60
2022-11-16T23:44:17.682Z,26.60
2022-11-16T23:46:45.901Z,29.20
2022-11-16T23:49:14.057Z,22.00
2022-11-16T23:51:42.320Z,24.90
2022-11-16T23:54:10.606Z,26.40
2022-11-16T23:56:38.795Z,29.80
2022-11-16T23:59:07.192Z,28.10
